Time;durP1;ratioP1;P1;durP2;ratioP2;P2;SDS_P1;SDS_P2;PMS_P1;PMS_P2;Temp;Humidity;BMP_temperature;BMP_pressure;BME280_temperature;BME280_humidity;BME280_pressure;Samples;Min_cycle;Max_cycle;Signal;HPM_P1;HPM_P2
2023/09/11 00:04:34;;;;;;;13.85;12.00;;;17.00;99.90;;;;;;10210719;29;20258;-85
2023/09/11 00:09:36;;;;;;;10.32;9.32;;;17.00;99.90;;;;;;10209289;29;20349;-84
2023/09/11 00:14:39;;;;;;;15.70;13.75;;;17.00;99.90;;;;;;10209604;29;20238;-84
2023/09/11 00:19:41;;;;;;;14.50;12.90;;;16.90;99.90;;;;;;10209199;29;20716;-84
2023/09/11 00:24:44;;;;;;;14.45;12.70;;;16.60;99.90;;;;;;10209228;29;20321;-85
2023/09/11 00:29:46;;;;;;;21.25;15.38;;;16.80;99.90;;;;;;10209228;29;20238;-85
2023/09/11 00:34:49;;;;;;;11.57;9.32;;;16.60;99.90;;;;;;10191983;29;20230;-84
2023/09/11 00:39:52;;;;;;;15.38;13.77;;;16.50;99.90;;;;;;10191934;29;20269;-85
2023/09/11 00:44:54;;;;;;;15.98;12.55;;;16.50;99.90;;;;;;10190555;29;20259;-85
2023/09/11 00:49:58;;;;;;;17.58;14.27;;;16.30;99.90;;;;;;10171584;29;20247;-84
2023/09/11 00:55:01;;;;;;;12.80;11.10;;;16.30;99.90;;;;;;10200858;29;20791;-84
2023/09/11 01:00:06;;;;;;;12.98;11.60;;;16.40;99.90;;;;;;10198375;29;20238;-84
2023/09/11 01:05:09;;;;;;;15.60;13.00;;;16.50;99.90;;;;;;10208794;29;20258;-84
2023/09/11 01:10:12;;;;;;;16.85;13.30;;;16.30;99.90;;;;;;10210845;29;20293;-84
2023/09/11 01:15:14;;;;;;;14.10;11.40;;;16.10;99.90;;;;;;10202053;29;20252;-84
2023/09/11 01:20:18;;;;;;;15.07;12.18;;;16.20;99.90;;;;;;10182325;29;20903;-84
2023/09/11 01:25:49;;;;;;;13.27;9.93;;;16.00;99.90;;;;;;10189737;29;20258;-84
2023/09/11 01:30:52;;;;;;;18.60;15.30;;;16.10;99.90;;;;;;10186512;29;20266;-84
2023/09/11 01:35:55;;;;;;;17.35;12.80;;;15.80;99.90;;;;;;10170581;29;20243;-84
2023/09/11 01:40:59;;;;;;;16.05;13.32;;;15.90;99.90;;;;;;10197138;29;20654;-84
2023/09/11 01:46:04;;;;;;;13.57;10.80;;;15.60;99.90;;;;;;10233190;29;20309;-84
2023/09/11 01:51:07;;;;;;;13.15;11.68;;;15.70;99.90;;;;;;10163766;29;20301;-84
2023/09/11 01:56:11;;;;;;;13.65;11.77;;;15.90;99.90;;;;;;10187758;29;20258;-85
2023/09/11 02:01:13;;;;;;;17.10;13.00;;;15.70;99.90;;;;;;10188138;29;20298;-84
2023/09/11 02:06:16;;;;;;;16.63;12.65;;;15.70;99.90;;;;;;10181980;29;20258;-84
2023/09/11 02:11:19;;;;;;;15.63;13.93;;;15.50;99.90;;;;;;10190628;28;20270;-84
2023/09/11 02:16:21;;;;;;;14.95;13.32;;;15.50;99.90;;;;;;10174091;29;20641;-84
2023/09/11 02:21:24;;;;;;;12.32;10.45;;;15.20;99.90;;;;;;10186532;29;20254;-84
2023/09/11 02:26:26;;;;;;;17.17;12.77;;;15.40;99.90;;;;;;10180502;29;20266;-84
2023/09/11 02:31:29;;;;;;;13.52;11.63;;;15.40;99.90;;;;;;10186851;29;20239;-85
2023/09/11 02:36:32;;;;;;;15.30;13.40;;;15.30;99.90;;;;;;10203658;29;20242;-84
2023/09/11 02:41:34;;;;;;;16.30;13.18;;;15.20;99.90;;;;;;10203698;29;20286;-84
2023/09/11 02:46:37;;;;;;;13.32;12.05;;;14.90;99.90;;;;;;10180130;29;20275;-84
2023/09/11 02:51:39;;;;;;;13.70;12.20;;;15.00;99.90;;;;;;10187160;29;20294;-85
2023/09/11 02:56:42;;;;;;;21.48;13.93;;;15.00;99.90;;;;;;10152657;29;1152744;-84
2023/09/11 03:01:44;;;;;;;11.45;10.25;;;15.00;99.90;;;;;;10175624;29;20266;-84
2023/09/11 03:06:47;;;;;;;19.25;12.93;;;14.90;99.90;;;;;;10177717;29;20258;-84
2023/09/11 03:11:50;;;;;;;10.45;8.43;;;15.00;99.90;;;;;;10201471;29;20314;-84
2023/09/11 03:16:52;;;;;;;12.07;9.63;;;15.30;99.90;;;;;;10200124;29;20678;-85
2023/09/11 03:21:55;;;;;;;15.05;10.27;;;15.20;99.90;;;;;;10170480;29;20247;-85
2023/09/11 03:26:58;;;;;;;11.73;10.57;;;15.40;99.90;;;;;;10210949;29;20721;-85
2023/09/11 03:32:01;;;;;;;16.10;11.57;;;15.30;99.90;;;;;;10194438;29;20274;-85
2023/09/11 03:37:03;;;;;;;11.90;10.70;;;15.10;99.90;;;;;;10193199;29;20254;-85
2023/09/11 03:42:06;;;;;;;16.42;11.93;;;14.90;99.90;;;;;;10192752;29;20259;-85
2023/09/11 03:47:09;;;;;;;13.48;11.10;;;14.80;99.90;;;;;;10208585;29;20298;-85
2023/09/11 03:52:12;;;;;;;11.88;10.15;;;14.80;99.90;;;;;;10193216;29;20247;-84
2023/09/11 03:57:14;;;;;;;13.27;10.50;;;14.90;99.90;;;;;;10191725;29;20748;-84
2023/09/11 04:02:17;;;;;;;12.68;11.48;;;14.60;99.90;;;;;;10210249;29;20298;-84
2023/09/11 04:07:20;;;;;;;17.95;11.43;;;14.90;99.90;;;;;;10192912;29;20266;-85
2023/09/11 04:12:23;;;;;;;19.67;12.68;;;14.70;99.90;;;;;;10192372;29;20243;-85
2023/09/11 04:17:25;;;;;;;12.48;10.00;;;14.50;99.90;;;;;;10207928;29;20239;-84
2023/09/11 04:22:28;;;;;;;13.65;11.57;;;14.60;99.90;;;;;;10191216;29;20254;-84
2023/09/11 04:27:31;;;;;;;16.23;12.38;;;14.40;99.90;;;;;;10191503;29;20270;-84
2023/09/11 04:32:34;;;;;;;13.98;11.60;;;14.40;99.90;;;;;;10191501;29;20301;-85
2023/09/11 04:37:37;;;;;;;16.67;11.07;;;14.40;99.90;;;;;;10191892;29;20862;-84
2023/09/11 04:42:42;;;;;;;8.80;8.00;;;14.80;99.90;;;;;;10191966;29;20246;-85
2023/09/11 04:47:45;;;;;;;18.30;13.40;;;14.80;99.90;;;;;;10177129;29;20258;-84
2023/09/11 04:52:48;;;;;;;21.35;12.68;;;15.10;99.90;;;;;;10208605;29;20242;-84
2023/09/11 04:57:50;;;;;;;25.45;12.80;;;14.90;99.90;;;;;;10191623;29;20330;-84
2023/09/11 05:02:53;;;;;;;15.25;13.27;;;14.70;99.90;;;;;;10208282;29;21019;-84
2023/09/11 05:07:55;;;;;;;21.50;11.80;;;14.60;99.90;;;;;;10205055;29;20671;-84
2023/09/11 05:12:58;;;;;;;13.65;11.05;;;14.60;99.90;;;;;;10190595;29;20681;-83
2023/09/11 05:18:02;;;;;;;19.30;13.27;;;14.80;99.90;;;;;;10199218;29;20247;-84
2023/09/11 05:23:05;;;;;;;17.17;14.02;;;15.10;99.90;;;;;;10185987;29;20251;-83
2023/09/11 05:28:08;;;;;;;23.45;18.13;;;15.30;99.90;;;;;;10190397;29;20693;-83
2023/09/11 05:33:10;;;;;;;28.77;15.20;;;14.70;99.90;;;;;;10206758;29;20243;-84
2023/09/11 05:38:13;;;;;;;29.38;17.27;;;14.40;99.90;;;;;;10189941;29;20294;-82
2023/09/11 05:43:15;;;;;;;23.75;13.82;;;14.30;99.90;;;;;;10197570;29;20625;-87
2023/09/11 05:48:18;;;;;;;22.92;14.55;;;14.70;99.90;;;;;;10150997;29;20302;-87
2023/09/11 05:53:20;;;;;;;15.43;12.23;;;15.30;99.90;;;;;;10168030;29;20299;-88
2023/09/11 05:58:23;;;;;;;15.95;13.07;;;15.70;99.90;;;;;;10143420;29;20316;-87
2023/09/11 06:03:26;;;;;;;14.25;11.05;;;16.00;99.90;;;;;;10133066;29;20231;-86
2023/09/11 06:08:28;;;;;;;27.15;15.13;;;16.30;99.90;;;;;;10162892;29;20412;-88
2023/09/11 06:13:33;;;;;;;20.15;12.68;;;16.70;99.90;;;;;;10164258;29;20268;-88
2023/09/11 06:18:35;;;;;;;14.95;10.45;;;17.00;99.90;;;;;;10166392;29;20246;-87
2023/09/11 06:23:38;;;;;;;30.90;16.85;;;17.40;99.90;;;;;;10172717;29;20253;-87
2023/09/11 06:28:41;;;;;;;26.52;18.42;;;17.70;99.90;;;;;;10177784;29;20338;-88
2023/09/11 06:33:44;;;;;;;18.75;12.05;;;17.90;99.90;;;;;;10162733;29;20310;-88
2023/09/11 06:38:47;;;;;;;20.80;13.00;;;18.10;99.90;;;;;;10164793;29;20251;-88
2023/09/11 06:43:50;;;;;;;44.95;18.77;;;18.30;99.90;;;;;;10156789;29;20246;-88
2023/09/11 06:48:52;;;;;;;18.67;13.02;;;18.50;99.90;;;;;;10171316;29;20677;-88
2023/09/11 06:53:55;;;;;;;25.40;10.20;;;18.70;99.90;;;;;;10172548;29;20287;-87
2023/09/11 06:58:58;;;;;;;14.75;10.63;;;19.00;99.90;;;;;;10169888;29;20810;-87
2023/09/11 07:04:00;;;;;;;13.82;10.43;;;19.20;99.90;;;;;;10169911;29;20295;-87
2023/09/11 07:09:05;;;;;;;13.10;9.82;;;19.50;99.90;;;;;;10172720;29;20275;-88
2023/09/11 07:14:12;;;;;;;23.15;16.05;;;19.60;99.90;;;;;;10171162;29;20279;-87
2023/09/11 07:19:15;;;;;;;12.10;10.25;;;19.80;99.90;;;;;;10185079;29;20270;-87
2023/09/11 07:24:18;;;;;;;20.30;18.02;;;20.10;99.90;;;;;;10170479;29;20239;-87
2023/09/11 07:29:26;;;;;;;11.30;10.20;;;20.30;99.90;;;;;;10162044;29;20267;-87
2023/09/11 07:34:29;;;;;;;13.85;10.15;;;20.50;99.90;;;;;;10153898;29;20255;-88
2023/09/11 07:39:31;;;;;;;19.25;12.63;;;20.80;99.90;;;;;;10155273;29;20295;-87
2023/09/11 07:44:34;;;;;;;10.82;9.57;;;21.00;99.90;;;;;;10154642;29;20247;-87
2023/09/11 07:49:37;;;;;;;15.32;13.65;;;21.20;99.90;;;;;;10169315;29;20299;-87
2023/09/11 07:54:39;;;;;;;21.95;17.00;;;21.50;99.90;;;;;;10172221;29;20388;-88
2023/09/11 07:59:41;;;;;;;26.10;17.05;;;21.70;99.90;;;;;;10207205;29;20653;-88
2023/09/11 08:04:44;;;;;;;24.38;17.00;;;21.90;99.90;;;;;;10205005;29;20246;-88
2023/09/11 08:09:48;;;;;;;18.73;15.07;;;22.10;99.90;;;;;;10193807;29;20270;-88
2023/09/11 08:14:50;;;;;;;28.70;21.65;;;22.30;99.90;;;;;;10194462;29;20668;-88
2023/09/11 08:19:53;;;;;;;15.85;11.85;;;22.50;99.90;;;;;;10211117;29;20834;-88
2023/09/11 08:24:56;;;;;;;11.90;10.20;;;22.80;99.90;;;;;;10193786;29;20298;-88
2023/09/11 08:29:59;;;;;;;10.07;8.23;;;;;;;;;;10224747;29;20262;-88
2023/09/11 08:35:02;;;;;;;40.83;14.20;;;23.20;99.90;;;;;;10209513;29;20231;-88
2023/09/11 08:40:06;;;;;;;18.55;13.30;;;23.30;99.90;;;;;;10204539;29;20245;-88
2023/09/11 08:45:12;;;;;;;26.90;17.48;;;23.50;99.90;;;;;;10211701;29;20322;-88
2023/09/11 08:50:17;;;;;;;16.75;10.25;;;23.70;99.90;;;;;;10198130;29;20321;-88
2023/09/11 08:55:21;;;;;;;23.05;14.07;;;23.90;99.90;;;;;;10206887;29;20270;-88
2023/09/11 09:00:25;;;;;;;13.38;10.70;;;24.10;99.90;;;;;;10187762;29;20297;-88
2023/09/11 09:05:31;;;;;;;14.77;10.90;;;24.30;99.90;;;;;;10174660;29;20701;-88
2023/09/11 09:10:34;;;;;;;17.45;12.60;;;24.40;99.90;;;;;;10189221;29;20297;-88
2023/09/11 09:15:40;;;;;;;12.50;9.93;;;24.50;99.90;;;;;;10204397;29;20246;-88
2023/09/11 09:20:43;;;;;;;9.75;7.85;;;24.70;99.90;;;;;;10206704;29;20302;-88
2023/09/11 09:25:46;;;;;;;17.48;10.55;;;24.80;99.90;;;;;;10206550;29;20259;-88
2023/09/11 09:30:55;;;;;;;10.05;9.05;;;25.00;99.90;;;;;;10190383;29;20667;-88
2023/09/11 09:35:58;;;;;;;10.75;8.88;;;25.20;99.90;;;;;;10206785;29;20286;-88
2023/09/11 09:41:11;;;;;;;15.75;11.43;;;25.30;99.90;;;;;;10206422;29;20250;-88
2023/09/11 09:46:19;;;;;;;8.82;8.00;;;25.40;99.90;;;;;;10190123;29;20239;-88
2023/09/11 09:51:21;;;;;;;10.15;8.70;;;25.50;99.90;;;;;;10187960;29;20266;-87
2023/09/11 09:56:27;;;;;;;14.57;11.05;;;25.60;99.90;;;;;;10206793;29;20345;-87
2023/09/11 10:01:29;;;;;;;9.88;8.93;;;25.70;99.90;;;;;;10190894;29;20290;-87
2023/09/11 10:06:32;;;;;;;12.70;10.63;;;25.80;99.90;;;;;;10207674;29;20246;-87
2023/09/11 10:11:35;;;;;;;13.82;8.82;;;25.90;99.90;;;;;;10207033;29;20330;-87
2023/09/11 10:16:38;;;;;;;9.75;8.85;;;25.90;99.90;;;;;;10211033;29;20274;-87
2023/09/11 10:21:41;;;;;;;9.65;8.70;;;25.90;99.90;;;;;;10198332;29;20242;-87
2023/09/11 10:26:49;;;;;;;9.82;8.70;;;25.90;99.90;;;;;;10205207;29;20239;-83
2023/09/11 10:32:00;;;;;;;9.63;8.43;;;26.00;99.90;;;;;;10193194;29;20668;-83
2023/09/11 10:37:05;;;;;;;12.77;8.30;;;25.90;99.90;;;;;;10214006;29;20633;-83
2023/09/11 10:42:07;;;;;;;12.52;7.72;;;25.90;99.90;;;;;;10202027;29;20313;-83
2023/09/11 10:47:11;;;;;;;7.88;7.10;;;26.00;99.90;;;;;;10195117;29;20313;-83
2023/09/11 10:52:13;;;;;;;8.57;7.68;;;26.00;99.90;;;;;;10195621;29;20282;-82
2023/09/11 10:57:16;;;;;;;8.88;7.97;;;26.10;99.90;;;;;;10210043;29;20847;-83
2023/09/11 11:02:22;;;;;;;9.73;7.88;;;26.10;99.90;;;;;;10213594;29;20290;-83
2023/09/11 11:07:25;;;;;;;10.85;8.07;;;26.30;99.90;;;;;;10212079;29;20258;-83
2023/09/11 11:12:34;;;;;;;8.95;8.05;;;26.30;99.90;;;;;;10212439;29;20238;-83
2023/09/11 11:17:37;;;;;;;7.30;6.53;;;26.30;99.90;;;;;;10211978;29;20660;-83
2023/09/11 11:22:41;;;;;;;9.80;8.27;;;26.40;99.90;;;;;;10244742;29;20242;-83
2023/09/11 11:27:45;;;;;;;8.63;7.38;;;26.40;99.90;;;;;;10243240;29;20276;-83
2023/09/11 11:32:48;;;;;;;9.25;8.25;;;26.40;99.90;;;;;;10193891;29;20291;-83
2023/09/11 11:37:53;;;;;;;8.98;8.07;;;26.50;99.90;;;;;;10230401;29;20300;-83
2023/09/11 11:42:56;;;;;;;14.88;9.82;;;26.60;99.90;;;;;;10223056;29;20242;-83
2023/09/11 11:48:00;;;;;;;10.50;8.85;;;26.60;99.90;;;;;;10244800;29;20317;-83
2023/09/11 11:53:05;;;;;;;10.15;8.93;;;26.60;99.90;;;;;;10211377;29;20238;-83
2023/09/11 11:58:09;;;;;;;9.85;7.68;;;26.70;99.90;;;;;;10210824;29;20254;-83
2023/09/11 12:03:12;;;;;;;10.65;8.63;;;26.70;99.90;;;;;;10209748;29;20246;-83
2023/09/11 12:08:15;;;;;;;10.38;9.23;;;26.70;99.90;;;;;;10209323;29;20343;-83
2023/09/11 12:13:25;;;;;;;7.82;7.05;;;26.60;99.90;;;;;;10192432;29;20238;-83
2023/09/11 12:18:44;;;;;;;10.18;9.18;;;26.60;99.90;;;;;;10210287;29;20298;-83
2023/09/11 12:23:47;;;;;;;9.98;8.18;;;26.70;99.90;;;;;;10208491;29;20313;-83
2023/09/11 12:28:50;;;;;;;8.73;7.82;;;26.70;99.90;;;;;;10205226;29;20336;-83
2023/09/11 12:33:53;;;;;;;8.23;7.43;;;26.70;99.90;;;;;;10184500;29;20242;-83
2023/09/11 12:38:57;;;;;;;11.23;7.68;;;26.80;99.90;;;;;;10208166;29;20285;-83
2023/09/11 12:44:00;;;;;;;7.70;6.93;;;26.70;99.90;;;;;;10192019;29;20294;-83
2023/09/11 12:49:04;;;;;;;9.52;7.65;;;26.70;99.90;;;;;;10209073;29;20266;-83
2023/09/11 12:54:07;;;;;;;11.50;7.30;;;26.80;99.90;;;;;;10208208;29;20254;-83
2023/09/11 12:59:14;;;;;;;7.45;6.65;;;26.80;99.90;;;;;;10208340;29;20307;-83
2023/09/11 13:04:20;;;;;;;11.88;8.63;;;26.90;99.90;;;;;;10208746;29;20239;-83
2023/09/11 13:09:23;;;;;;;9.55;7.75;;;26.90;99.90;;;;;;10205357;29;20634;-83
2023/09/11 13:14:26;;;;;;;7.78;7.07;;;26.80;99.90;;;;;;10206511;29;20768;-83
2023/09/11 13:19:28;;;;;;;6.70;6.00;;;26.80;99.90;;;;;;10212753;29;20241;-83
2023/09/11 13:24:31;;;;;;;9.55;8.68;;;26.90;99.90;;;;;;10203715;29;20268;-83
2023/09/11 13:29:34;;;;;;;5.82;5.28;;;26.90;99.90;;;;;;10167743;29;20326;-83
2023/09/11 13:34:36;;;;;;;7.53;6.82;;;27.00;99.90;;;;;;10203470;29;20242;-83
2023/09/11 13:39:42;;;;;;;8.15;7.30;;;27.00;99.90;;;;;;10206754;29;20250;-83
2023/09/11 13:44:44;;;;;;;5.70;5.20;;;26.90;99.90;;;;;;10173719;29;20247;-83
2023/09/11 13:49:47;;;;;;;9.13;8.13;;;26.90;99.90;;;;;;10206104;29;20668;-82
2023/09/11 13:54:49;;;;;;;14.32;8.85;;;26.90;99.90;;;;;;10189312;29;20258;-83
2023/09/11 13:59:52;;;;;;;8.55;7.75;;;26.90;99.90;;;;;;10195020;29;20238;-82
2023/09/11 14:04:55;;;;;;;8.68;7.78;;;26.90;99.90;;;;;;10204343;29;20238;-83
2023/09/11 14:09:58;;;;;;;8.30;7.57;;;26.90;99.90;;;;;;10202891;29;20266;-82
2023/09/11 14:15:00;;;;;;;8.63;6.95;;;26.90;99.90;;;;;;10206252;29;20243;-82
2023/09/11 14:20:07;;;;;;;9.50;8.13;;;27.00;99.90;;;;;;10185728;29;20251;-82
2023/09/11 14:25:10;;;;;;;8.90;8.00;;;27.00;99.90;;;;;;10165953;29;20250;-82
2023/09/11 14:30:12;;;;;;;14.23;9.05;;;27.00;99.90;;;;;;10182811;29;20270;-82
2023/09/11 14:35:15;;;;;;;9.70;8.48;;;26.90;99.90;;;;;;10205774;29;20309;-82
2023/09/11 14:40:18;;;;;;;7.28;6.57;;;27.00;99.90;;;;;;10205720;29;20243;-82
2023/09/11 14:45:20;;;;;;;7.63;6.90;;;27.00;99.90;;;;;;10205838;29;20723;-82
2023/09/11 14:50:23;;;;;;;10.02;7.85;;;26.90;99.90;;;;;;10204068;29;20258;-82
2023/09/11 14:55:25;;;;;;;11.85;8.20;;;26.90;99.90;;;;;;10203757;29;20696;-82
2023/09/11 15:00:28;;;;;;;9.55;7.70;;;26.80;99.90;;;;;;10187030;29;20248;-82
2023/09/11 15:05:30;;;;;;;8.35;7.55;;;26.70;99.90;;;;;;10212668;29;20246;-82
2023/09/11 15:10:33;;;;;;;9.20;8.18;;;26.70;99.90;;;;;;10206282;29;20297;-83
2023/09/11 15:15:36;;;;;;;11.57;8.88;;;26.60;99.90;;;;;;10212785;29;20310;-83
2023/09/11 15:20:38;;;;;;;12.10;8.40;;;26.60;99.90;;;;;;10210596;29;20246;-83
2023/09/11 15:25:41;;;;;;;7.88;7.00;;;26.50;99.90;;;;;;10212223;29;20310;-83
2023/09/11 15:30:43;;;;;;;7.28;6.57;;;26.50;99.90;;;;;;10211794;29;20869;-83
2023/09/11 15:36:00;;;;;;;13.88;8.40;;;26.50;99.90;;;;;;10211503;29;20298;-82
2023/09/11 15:41:03;;;;;;;8.73;7.93;;;26.40;99.90;;;;;;10194809;29;20301;-83
2023/09/11 15:46:07;;;;;;;8.90;8.10;;;26.30;99.90;;;;;;10171273;29;20780;-83
2023/09/11 15:51:10;;;;;;;8.95;8.05;;;26.20;99.90;;;;;;10172550;29;20271;-82
2023/09/11 15:56:13;;;;;;;8.95;8.15;;;26.10;99.90;;;;;;10172341;29;20664;-83
2023/09/11 16:01:16;;;;;;;8.80;8.00;;;26.00;99.90;;;;;;10184405;29;20929;-83
2023/09/11 16:06:18;;;;;;;8.30;7.50;;;25.90;99.90;;;;;;9853059;29;10000463;-83
2023/09/11 16:11:21;;;;;;;18.42;8.85;;;25.80;99.90;;;;;;10169317;29;20323;-83
2023/09/11 16:16:24;;;;;;;15.07;8.95;;;25.60;99.90;;;;;;10170626;29;20265;-83
2023/09/11 16:21:27;;;;;;;10.57;8.32;;;25.40;99.90;;;;;;10170598;29;20279;-83
2023/09/11 16:26:41;;;;;;;12.35;9.38;;;25.20;99.90;;;;;;10177943;29;20258;-83
2023/09/11 16:31:43;;;;;;;14.25;9.30;;;25.00;99.90;;;;;;10192490;29;20258;-83
2023/09/11 16:36:46;;;;;;;16.40;9.45;;;24.70;99.90;;;;;;10209205;29;20675;-83
2023/09/11 16:41:49;;;;;;;14.38;9.13;;;24.40;99.90;;;;;;10192323;29;20728;-83
2023/09/11 16:46:51;;;;;;;14.75;9.55;;;24.00;99.90;;;;;;10207747;29;20250;-83
2023/09/11 16:51:54;;;;;;;21.35;9.95;;;23.60;99.90;;;;;;10208595;29;20266;-83
2023/09/11 16:56:56;;;;;;;17.05;11.85;;;23.30;99.90;;;;;;10191524;29;20748;-83
2023/09/11 17:01:59;;;;;;;24.02;10.57;;;23.00;99.90;;;;;;10208712;29;20246;-83
2023/09/11 17:07:02;;;;;;;24.70;11.50;;;22.60;99.90;;;;;;10206451;29;20306;-84
2023/09/11 17:12:05;;;;;;;24.48;11.77;;;22.40;99.90;;;;;;10207690;29;20266;-83
2023/09/11 17:17:07;;;;;;;19.80;10.82;;;22.30;99.90;;;;;;10207558;29;20301;-83
2023/09/11 17:22:10;;;;;;;14.45;9.73;;;22.20;99.90;;;;;;10207849;29;20239;-83
2023/09/11 17:27:12;;;;;;;14.93;11.02;;;22.00;99.90;;;;;;10205545;29;20692;-83
2023/09/11 17:32:15;;;;;;;16.80;9.88;;;21.90;99.90;;;;;;10206301;29;20314;-83
2023/09/11 17:37:18;;;;;;;18.45;10.55;;;21.70;99.90;;;;;;9863079;29;10000380;-83
2023/09/11 17:42:20;;;;;;;26.95;11.35;;;21.40;99.90;;;;;;10203988;29;20254;-83
2023/09/11 17:47:23;;;;;;;28.20;12.05;;;21.10;99.90;;;;;;10186702;29;20250;-83
2023/09/11 17:52:26;;;;;;;35.85;13.23;;;20.90;99.90;;;;;;10170799;29;20266;-83
2023/09/11 17:57:28;;;;;;;32.72;12.52;;;20.60;99.90;;;;;;10183874;29;20259;-83
2023/09/11 18:02:31;;;;;;;31.20;13.50;;;20.50;99.90;;;;;;10183725;29;20270;-83
2023/09/11 18:07:38;;;;;;;20.67;10.10;;;20.40;99.90;;;;;;10202539;29;20310;-83
2023/09/11 18:12:41;;;;;;;21.90;11.98;;;20.40;99.90;;;;;;10204105;29;20286;-83
2023/09/11 18:17:43;;;;;;;23.42;11.63;;;20.40;99.90;;;;;;10189802;29;20243;-83
2023/09/11 18:22:46;;;;;;;27.55;13.18;;;20.30;99.90;;;;;;10203439;29;20302;-83
2023/09/11 18:27:48;;;;;;;19.58;10.98;;;20.20;99.90;;;;;;10202276;29;20286;-83
2023/09/11 18:32:51;;;;;;;21.63;12.98;;;20.10;99.90;;;;;;10201949;29;20294;-83
2023/09/11 18:37:54;;;;;;;17.85;10.85;;;19.90;99.90;;;;;;10206456;29;20254;-83
2023/09/11 18:42:58;;;;;;;27.98;12.15;;;19.70;99.90;;;;;;10193321;29;20313;-83
2023/09/11 18:48:00;;;;;;;27.33;13.52;;;19.50;99.90;;;;;;10205981;29;20242;-83
2023/09/11 18:53:03;;;;;;;19.88;10.52;;;19.40;99.90;;;;;;10188614;29;20350;-83
2023/09/11 18:58:06;;;;;;;31.75;11.85;;;19.40;99.90;;;;;;10190598;29;20779;-83
2023/09/11 19:03:09;;;;;;;20.67;11.63;;;19.20;99.90;;;;;;10196449;29;20282;-83
2023/09/11 19:08:13;;;;;;;41.15;12.20;;;19.20;99.90;;;;;;10191693;29;20306;-83
2023/09/11 19:13:16;;;;;;;33.08;13.18;;;18.90;99.90;;;;;;10193467;29;20274;-83
2023/09/11 19:18:18;;;;;;;26.23;12.30;;;18.60;99.90;;;;;;10192559;29;20250;-83
2023/09/11 19:23:21;;;;;;;33.47;13.82;;;18.50;99.90;;;;;;10207565;29;20329;-83
2023/09/11 19:28:23;;;;;;;30.40;12.00;;;18.40;99.90;;;;;;10210149;29;20239;-82
2023/09/11 19:33:26;;;;;;;26.65;12.02;;;18.30;99.90;;;;;;10210028;29;20258;-83
2023/09/11 19:38:28;;;;;;;41.92;14.10;;;18.30;99.90;;;;;;10211654;29;20258;-83
2023/09/11 19:43:32;;;;;;;28.35;11.82;;;18.30;99.90;;;;;;10209259;29;20801;-83
2023/09/11 19:48:37;;;;;;;34.03;12.07;;;18.10;99.90;;;;;;10210488;29;20254;-83
2023/09/11 19:53:40;;;;;;;26.40;11.85;;;18.10;99.90;;;;;;10209471;29;20259;-83
2023/09/11 19:58:43;;;;;;;28.73;12.32;;;17.90;99.90;;;;;;10209955;29;20266;-84
2023/09/11 20:03:45;;;;;;;24.50;12.88;;;18.00;99.90;;;;;;10208634;29;20302;-83
2023/09/11 20:08:48;;;;;;;27.30;13.55;;;17.90;99.90;;;;;;10210572;29;20262;-83
2023/09/11 20:13:51;;;;;;;29.63;12.50;;;17.80;99.90;;;;;;10204600;29;20724;-83
2023/09/11 20:18:53;;;;;;;21.27;13.38;;;17.60;99.90;;;;;;10208484;29;20286;-83
2023/09/11 20:23:56;;;;;;;24.67;11.77;;;17.60;99.90;;;;;;10209066;29;20247;-83
2023/09/11 20:28:59;;;;;;;22.75;10.90;;;17.70;99.90;;;;;;10209277;29;20270;-83
2023/09/11 20:34:01;;;;;;;20.90;12.50;;;17.60;99.90;;;;;;10183625;29;20283;-83
2023/09/11 20:39:04;;;;;;;20.38;12.43;;;17.50;99.90;;;;;;10202617;29;20246;-83
2023/09/11 20:44:06;;;;;;;17.80;11.02;;;17.50;99.90;;;;;;10207217;29;20242;-83
2023/09/11 20:49:09;;;;;;;20.45;11.65;;;17.50;99.90;;;;;;10208327;29;20238;-83
2023/09/11 20:54:12;;;;;;;21.33;11.57;;;17.50;99.90;;;;;;10207823;29;20250;-83
2023/09/11 20:59:14;;;;;;;25.17;13.20;;;17.30;99.90;;;;;;10207289;29;20238;-83
2023/09/11 21:04:17;;;;;;;15.95;10.45;;;17.10;99.90;;;;;;10207882;29;20337;-83
2023/09/11 21:09:19;;;;;;;20.95;11.43;;;17.10;99.90;;;;;;10204688;29;20246;-83
2023/09/11 21:14:22;;;;;;;22.60;12.73;;;17.30;99.90;;;;;;10205565;29;20251;-83
2023/09/11 21:19:25;;;;;;;20.27;11.90;;;17.10;99.90;;;;;;10206777;29;20266;-83
2023/09/11 21:24:27;;;;;;;29.77;11.77;;;17.10;99.90;;;;;;10207661;29;20261;-84
2023/09/11 21:29:30;;;;;;;21.83;12.70;;;16.90;99.90;;;;;;10206488;29;20297;-83
2023/09/11 21:34:33;;;;;;;16.45;11.50;;;16.80;99.90;;;;;;10190564;29;20310;-83
2023/09/11 21:39:35;;;;;;;20.98;11.10;;;16.80;99.90;;;;;;10170969;29;20254;-83
2023/09/11 21:44:38;;;;;;;17.60;12.13;;;16.70;99.90;;;;;;10189625;29;20238;-84
2023/09/11 21:49:40;;;;;;;24.30;11.93;;;16.70;99.90;;;;;;10206652;29;20243;-84
2023/09/11 21:54:43;;;;;;;11.95;9.57;;;16.50;99.90;;;;;;10189667;29;20262;-83
2023/09/11 21:59:46;;;;;;;24.58;13.65;;;16.70;99.90;;;;;;10206122;29;20242;-83
2023/09/11 22:04:49;;;;;;;22.45;13.90;;;16.70;99.90;;;;;;10201176;29;20245;-83
2023/09/11 22:09:52;;;;;;;18.98;11.90;;;16.60;99.90;;;;;;10178499;29;20314;-83
2023/09/11 22:14:54;;;;;;;17.50;11.30;;;16.60;99.90;;;;;;10214917;29;20376;-83
2023/09/11 22:19:58;;;;;;;19.52;13.60;;;16.60;99.90;;;;;;10215015;29;20268;-83
2023/09/11 22:25:00;;;;;;;23.80;13.88;;;16.40;99.90;;;;;;10213960;29;20258;-83
2023/09/11 22:30:03;;;;;;;18.42;11.45;;;16.40;99.90;;;;;;10214226;29;20262;-83
2023/09/11 22:35:06;;;;;;;23.20;14.32;;;16.50;99.90;;;;;;10213762;29;20318;-83
2023/09/11 22:40:09;;;;;;;26.92;13.63;;;16.50;99.90;;;;;;10214291;29;20243;-83
2023/09/11 22:45:11;;;;;;;18.30;13.02;;;16.40;99.90;;;;;;10214245;29;20243;-83
2023/09/11 22:50:15;;;;;;;18.63;11.27;;;16.30;99.90;;;;;;10213934;29;21005;-83
2023/09/11 22:55:18;;;;;;;15.73;12.10;;;16.40;99.90;;;;;;10197110;29;20314;-83
2023/09/11 23:00:21;;;;;;;15.63;11.77;;;16.40;99.90;;;;;;10213603;29;20242;-83
2023/09/11 23:05:23;;;;;;;20.83;12.48;;;16.40;99.90;;;;;;10213610;29;20254;-83
2023/09/11 23:10:27;;;;;;;18.42;12.55;;;16.30;99.90;;;;;;10213156;29;20286;-83
2023/09/11 23:15:30;;;;;;;19.17;11.90;;;16.40;99.90;;;;;;10195682;29;20246;-83
2023/09/11 23:20:33;;;;;;;12.70;9.82;;;16.40;99.90;;;;;;10212547;29;20372;-84
2023/09/11 23:25:35;;;;;;;17.15;12.27;;;16.20;99.90;;;;;;10195118;29;20258;-84
2023/09/11 23:30:38;;;;;;;17.02;12.60;;;16.20;99.90;;;;;;10195142;29;20270;-84
2023/09/11 23:35:40;;;;;;;19.17;12.65;;;16.00;99.90;;;;;;10212717;29;20270;-84
2023/09/11 23:40:43;;;;;;;15.55;11.98;;;15.80;99.90;;;;;;10211996;29;20239;-84
2023/09/11 23:45:45;;;;;;;17.83;12.55;;;16.10;99.90;;;;;;10211643;29;20704;-84
2023/09/11 23:50:48;;;;;;;17.42;10.73;;;16.10;99.90;;;;;;10195394;29;20266;-84
2023/09/11 23:55:51;;;;;;;17.23;12.65;;;16.00;99.90;;;;;;10211074;29;20326;-84
